KLGB/LGB METAR and TAF weather

Enter ICAO airport designator
Station Type Date Time Source
KLGB METAR 2018/12/15 01:53 UTC NOAA

KLGB 150153Z 31003KT 10SM CLR 18/04 A3011 RMK AO2 SLP195 T01780044


Station Type Date Time Source
KLGB Decoded METAR 2018/12/15 01:53 UTC NOAA

LONG BEACH AIRPORT, CA, United States (KLGB) 33-49N 118-09W 10M
Dec 14, 2018 - 08:53 PM EST / 2018.12.15 0153 UTC
Wind: from the NW (310 degrees) at 3 MPH (3 KT):0
Visibility: 10 mile(s):0
Sky conditions: clear
Temperature: 64.0 F (17.8 C)
Dew Point: 39.9 F (4.4 C)
Relative Humidity: 41%
Pressure (altimeter): 30.11 in. Hg (1019 hPa)
ob: KLGB 150153Z 31003KT 10SM CLR 18/04 A3011 RMK AO2 SLP195 T01780044
cycle: 2

Station Type Date Time Source
KLGB TAF 2018/12/14 18:51 UTC NOAA

TAF KLGB 141740Z 1418/1518 VRB03KT P6SM OVC200
FM142200 29005KT P6SM OVC200
FM150500 VRB03KT P6SM SCT250


Example: see airport list